createdAt,value
2023-09-17T02:00:26.439Z,27.58
2023-09-17T02:02:54.529Z,31.77
2023-09-17T02:05:22.485Z,28.65
2023-09-17T02:07:49.474Z,29.88
2023-09-17T02:10:21.015Z,34.60
2023-09-17T02:12:48.514Z,35.55
2023-09-17T02:15:19.075Z,29.25
2023-09-17T02:17:45.749Z,23.95
2023-09-17T02:20:12.912Z,23.27
2023-09-17T02:22:41.320Z,21.23
2023-09-17T02:25:08.887Z,23.73
2023-09-17T02:27:35.550Z,23.05
2023-09-17T02:30:06.204Z,27.08
2023-09-17T02:32:32.950Z,23.73
2023-09-17T02:35:00.624Z,21.80
2023-09-17T02:37:27.755Z,20.77
2023-09-17T02:39:54.367Z,25.08
2023-09-17T02:42:21.595Z,23.02
2023-09-17T02:44:48.204Z,23.85
2023-09-17T02:47:14.990Z,24.98
2023-09-17T02:49:42.751Z,24.77
2023-09-17T02:52:09.664Z,30.38
2023-09-17T02:54:37.609Z,30.73
2023-09-17T02:57:07.009Z,28.05
2023-09-17T02:59:35.311Z,28.90
2023-09-17T03:02:01.854Z,26.80
2023-09-17T03:04:30.423Z,27.75
2023-09-17T03:07:00.155Z,29.55
2023-09-17T03:09:27.020Z,22.40
2023-09-17T03:11:53.805Z,23.25
2023-09-17T03:14:21.925Z,24.30
2023-09-17T03:16:49.592Z,25.05
2023-09-17T03:19:20.033Z,23.65
2023-09-17T03:21:47.065Z,24.90
2023-09-17T03:24:16.577Z,25.80
2023-09-17T03:26:43.811Z,24.23
2023-09-17T03:29:10.298Z,29.25
2023-09-17T03:31:38.175Z,31.48
2023-09-17T03:34:04.954Z,25.67
2023-09-17T03:36:31.968Z,30.48
2023-09-17T03:39:00.940Z,29.65
2023-09-17T03:41:29.771Z,25.08
2023-09-17T03:43:58.101Z,28.52
2023-09-17T03:46:24.737Z,27.95
2023-09-17T03:48:51.595Z,25.42
2023-09-17T03:51:18.519Z,25.50
2023-09-17T03:53:46.729Z,25.70
2023-09-17T03:56:13.799Z,25.88
2023-09-17T03:58:40.723Z,25.45
2023-09-17T04:01:09.708Z,25.90
2023-09-17T04:03:37.988Z,25.90
2023-09-17T04:06:04.762Z,24.80
2023-09-17T04:08:31.294Z,23.83
2023-09-17T04:10:57.828Z,26.60
2023-09-17T04:13:24.622Z,24.75
2023-09-17T04:15:52.171Z,28.73
2023-09-17T04:18:25.522Z,26.20
2023-09-17T04:20:52.728Z,27.17
2023-09-17T04:23:20.540Z,30.17
2023-09-17T04:25:47.036Z,25.00
2023-09-17T04:28:14.026Z,26.20
2023-09-17T04:30:41.069Z,29.13
2023-09-17T04:33:07.894Z,29.27
2023-09-17T04:35:34.362Z,26.95
2023-09-17T04:38:00.916Z,27.25
2023-09-17T04:40:30.033Z,24.65
2023-09-17T04:42:57.041Z,27.65
2023-09-17T04:45:35.588Z,28.50
2023-09-17T04:48:02.512Z,27.70
2023-09-17T04:50:29.581Z,25.13
2023-09-17T04:52:59.204Z,25.38
2023-09-17T04:55:26.720Z,26.20
2023-09-17T04:57:55.923Z,24.30
2023-09-17T05:00:22.617Z,25.00
2023-09-17T05:02:50.669Z,29.42
2023-09-17T05:05:20.581Z,29.52
2023-09-17T05:07:50.248Z,28.48
2023-09-17T05:10:19.921Z,29.05
2023-09-17T05:12:46.445Z,27.45
2023-09-17T05:15:13.368Z,27.65
2023-09-17T05:17:41.880Z,29.25
2023-09-17T05:20:09.207Z,27.65
2023-09-17T05:22:41.796Z,29.17
2023-09-17T05:25:09.475Z,26.90
2023-09-17T05:27:37.443Z,26.98
2023-09-17T05:30:05.311Z,27.65
2023-09-17T05:32:32.265Z,30.23
2023-09-17T05:35:05.817Z,26.58
2023-09-17T05:37:33.681Z,26.77
2023-09-17T05:40:01.471Z,28.90
2023-09-17T05:42:28.947Z,25.73
2023-09-17T05:44:55.492Z,26.02
2023-09-17T05:47:22.074Z,24.27
2023-09-17T05:49:49.369Z,25.42
2023-09-17T05:52:17.542Z,25.02
2023-09-17T05:54:44.817Z,26.40
2023-09-17T05:57:11.249Z,27.25
2023-09-17T05:59:37.748Z,24.42
2023-09-17T06:02:05.341Z,24.77
2023-09-17T06:04:32.548Z,22.63
2023-09-17T06:06:59.483Z,23.25
2023-09-17T06:09:26.400Z,22.95
2023-09-17T06:11:52.922Z,22.70
2023-09-17T06:14:19.893Z,23.10
2023-09-17T06:16:56.805Z,23.55
2023-09-17T06:19:25.774Z,23.65
2023-09-17T06:21:57.603Z,21.45
2023-09-17T06:24:25.189Z,22.02
2023-09-17T06:26:51.601Z,24.13
2023-09-17T06:29:18.574Z,23.02
2023-09-17T06:31:45.881Z,24.50
2023-09-17T06:34:13.578Z,27.73
2023-09-17T06:36:41.162Z,27.83
2023-09-17T06:39:08.827Z,26.73
2023-09-17T06:41:38.085Z,29.60
2023-09-17T06:44:05.661Z,34.35
2023-09-17T06:46:34.340Z,33.13
2023-09-17T06:49:01.709Z,37.55
2023-09-17T06:51:29.645Z,43.85
2023-09-17T06:53:56.996Z,48.10
2023-09-17T06:56:26.698Z,50.13
2023-09-17T06:58:54.227Z,51.75
2023-09-17T07:01:20.906Z,57.92
2023-09-17T07:03:49.924Z,62.53
2023-09-17T07:06:18.090Z,71.25
2023-09-17T07:08:45.457Z,73.13
2023-09-17T07:11:12.352Z,73.90
2023-09-17T07:13:39.883Z,76.90
2023-09-17T07:16:06.620Z,90.88
2023-09-17T07:18:33.157Z,89.85
2023-09-17T07:20:59.680Z,89.65
2023-09-17T07:23:28.285Z,93.57
2023-09-17T07:25:54.751Z,95.18
2023-09-17T07:28:22.131Z,88.43
2023-09-17T07:30:53.737Z,98.72
2023-09-17T07:33:21.100Z,94.78
2023-09-17T07:35:49.839Z,98.25
2023-09-17T07:38:17.757Z,94.15
2023-09-17T07:40:46.823Z,89.35
2023-09-17T07:43:13.306Z,101.75
2023-09-17T07:45:39.855Z,94.55
2023-09-17T07:48:06.796Z,100.90
2023-09-17T07:50:34.366Z,102.57
2023-09-17T07:53:01.185Z,98.40
2023-09-17T07:55:27.767Z,96.85
2023-09-17T07:57:54.470Z,100.03
2023-09-17T08:00:22.600Z,89.28
2023-09-17T08:02:50.366Z,91.47
2023-09-17T08:05:17.666Z,93.10
2023-09-17T08:07:47.078Z,89.70
2023-09-17T08:10:14.161Z,90.18
2023-09-17T08:12:40.847Z,81.00
2023-09-17T08:15:11.650Z,88.43
2023-09-17T08:17:39.587Z,91.45
2023-09-17T08:20:10.583Z,94.03
2023-09-17T08:22:41.879Z,96.43
2023-09-17T08:25:10.482Z,84.78
2023-09-17T08:27:37.115Z,85.45
2023-09-17T08:30:04.749Z,79.95
2023-09-17T08:32:31.529Z,79.47
2023-09-17T08:34:59.579Z,82.25
2023-09-17T08:37:28.138Z,78.15
2023-09-17T08:39:57.406Z,83.90
2023-09-17T08:42:27.724Z,80.75
2023-09-17T08:44:57.255Z,84.95
2023-09-17T08:47:24.830Z,85.60
2023-09-17T08:49:54.621Z,83.85
2023-09-17T08:52:21.941Z,87.43
2023-09-17T08:54:50.575Z,84.07
2023-09-17T08:57:21.676Z,89.53
2023-09-17T09:00:01.459Z,88.43
2023-09-17T09:02:32.845Z,77.65
2023-09-17T09:05:01.817Z,76.30
2023-09-17T09:07:30.676Z,67.47
2023-09-17T09:09:57.721Z,73.43
2023-09-17T09:12:25.809Z,82.13
2023-09-17T09:14:54.694Z,79.43
2023-09-17T09:17:21.400Z,79.70
2023-09-17T09:19:49.315Z,84.35
2023-09-17T09:22:15.753Z,83.07
2023-09-17T09:24:49.328Z,76.47
2023-09-17T09:27:17.449Z,77.15
2023-09-17T09:29:46.005Z,70.45
2023-09-17T09:32:13.487Z,70.70
2023-09-17T09:34:42.172Z,67.68
2023-09-17T09:37:13.744Z,71.70
2023-09-17T09:39:45.474Z,74.05
2023-09-17T09:42:14.368Z,63.75
2023-09-17T09:44:40.827Z,69.85
2023-09-17T09:47:07.895Z,68.80
2023-09-17T09:49:43.644Z,67.40
2023-09-17T09:52:13.923Z,69.50
2023-09-17T09:54:42.181Z,69.97
2023-09-17T09:57:13.064Z,59.85
2023-09-17T09:59:40.127Z,61.38
2023-09-17T10:02:07.148Z,58.33
2023-09-17T10:04:39.242Z,65.68
2023-09-17T10:07:06.243Z,61.65
2023-09-17T10:09:32.735Z,59.78
2023-09-17T10:12:01.520Z,55.70
2023-09-17T10:14:30.480Z,52.72
2023-09-17T10:16:59.316Z,54.58
2023-09-17T10:19:27.459Z,52.75
2023-09-17T10:21:54.455Z,44.67
2023-09-17T10:24:21.647Z,49.38
2023-09-17T10:26:51.677Z,53.83
2023-09-17T10:29:19.479Z,46.55
2023-09-17T10:31:48.696Z,49.55
2023-09-17T10:34:17.437Z,48.63
2023-09-17T10:36:53.828Z,50.13
2023-09-17T10:39:20.962Z,40.95
2023-09-17T10:41:49.960Z,49.67
2023-09-17T10:44:17.686Z,41.75
2023-09-17T10:46:46.669Z,50.17
2023-09-17T10:49:24.323Z,50.42
2023-09-17T10:51:52.975Z,42.58
2023-09-17T10:54:19.508Z,46.70
2023-09-17T10:56:47.713Z,43.97
2023-09-17T10:59:15.878Z,43.72
2023-09-17T11:01:45.357Z,46.00
2023-09-17T11:04:17.670Z,41.83
2023-09-17T11:06:45.934Z,44.55
2023-09-17T11:09:14.202Z,48.72
2023-09-17T11:11:42.076Z,47.95
2023-09-17T11:14:09.888Z,42.05
2023-09-17T11:16:37.604Z,41.83
2023-09-17T11:19:09.171Z,36.45
2023-09-17T11:21:37.300Z,41.63
2023-09-17T11:24:07.414Z,42.03
2023-09-17T11:26:37.040Z,36.78
2023-09-17T11:29:05.358Z,35.35
2023-09-17T11:31:34.209Z,36.03
2023-09-17T11:34:00.778Z,31.35
2023-09-17T11:36:27.631Z,35.28
2023-09-17T11:38:55.545Z,36.50
2023-09-17T11:41:34.850Z,37.85
2023-09-17T11:44:06.556Z,36.97
2023-09-17T11:46:35.682Z,35.05
2023-09-17T11:49:02.930Z,31.38
2023-09-17T11:51:34.098Z,36.40
2023-09-17T11:54:09.812Z,33.00
2023-09-17T11:56:47.142Z,32.83
2023-09-17T11:59:19.770Z,33.47
2023-09-17T12:01:53.192Z,32.42
2023-09-17T12:04:21.370Z,35.13
2023-09-17T12:06:49.059Z,33.63
2023-09-17T12:09:24.784Z,32.55
2023-09-17T12:11:52.502Z,34.15
2023-09-17T12:14:20.977Z,32.00
2023-09-17T12:16:49.090Z,32.60
2023-09-17T12:19:18.579Z,34.28
2023-09-17T12:21:52.582Z,34.65
2023-09-17T12:24:26.378Z,36.45
2023-09-17T12:27:19.201Z,36.67
2023-09-17T12:29:50.613Z,36.72
2023-09-17T12:32:21.130Z,37.33
2023-09-17T12:34:50.446Z,44.50
2023-09-17T12:37:21.694Z,36.85
2023-09-17T12:39:53.872Z,41.10
2023-09-17T12:42:22.706Z,40.03
2023-09-17T12:47:41.998Z,36.78
2023-09-17T12:50:09.834Z,38.28
2023-09-17T12:52:37.197Z,38.38
2023-09-17T12:55:05.592Z,39.45
2023-09-17T12:57:33.544Z,40.60
2023-09-17T13:00:02.941Z,41.13
2023-09-17T13:02:30.796Z,39.20
2023-09-17T13:04:57.948Z,39.53
2023-09-17T13:07:25.951Z,38.15
2023-09-17T13:09:59.762Z,42.65
2023-09-17T13:12:29.078Z,40.33
2023-09-17T13:15:01.463Z,34.95
2023-09-17T13:17:30.528Z,36.45
2023-09-17T13:19:57.589Z,37.00
2023-09-17T13:22:25.681Z,32.78
2023-09-17T13:24:53.159Z,33.50
2023-09-17T13:27:25.592Z,35.25
2023-09-17T13:29:57.061Z,35.00
2023-09-17T13:32:26.603Z,34.53
2023-09-17T13:34:53.336Z,31.45
2023-09-17T13:37:22.117Z,29.23
2023-09-17T13:39:54.043Z,29.40
2023-09-17T13:42:22.784Z,30.77
2023-09-17T13:44:49.586Z,34.33
2023-09-17T13:47:17.660Z,34.92
2023-09-17T13:49:45.722Z,34.55
2023-09-17T13:52:13.078Z,35.45
2023-09-17T13:54:40.946Z,37.33
2023-09-17T13:57:08.527Z,39.58
2023-09-17T13:59:35.928Z,40.13
2023-09-17T14:02:06.068Z,40.88
2023-09-17T14:04:34.352Z,41.35
2023-09-17T14:07:01.114Z,43.22
2023-09-17T14:09:27.595Z,44.53
2023-09-17T14:11:54.119Z,41.85
2023-09-17T14:14:23.345Z,41.90
2023-09-17T14:16:49.792Z,37.45
2023-09-17T14:19:19.851Z,36.03
2023-09-17T14:21:47.144Z,37.70
2023-09-17T14:24:13.822Z,36.75
2023-09-17T14:26:41.763Z,36.25
2023-09-17T14:29:09.584Z,35.10
2023-09-17T14:31:39.436Z,31.83
2023-09-17T14:34:09.541Z,31.58
2023-09-17T14:36:37.790Z,32.08
2023-09-17T14:39:05.458Z,30.17
2023-09-17T14:41:33.110Z,30.23
2023-09-17T14:44:01.761Z,30.25
2023-09-17T14:46:29.962Z,30.60
2023-09-17T14:48:57.512Z,29.63
2023-09-17T14:51:25.539Z,27.35
2023-09-17T14:53:52.316Z,28.48
2023-09-17T14:56:18.802Z,28.48
2023-09-17T14:58:45.364Z,27.67
2023-09-17T15:01:17.575Z,28.40
2023-09-17T15:03:53.237Z,30.27
2023-09-17T15:06:21.140Z,29.50
2023-09-17T15:08:49.938Z,30.45
2023-09-17T15:11:17.524Z,31.60
2023-09-17T15:13:44.927Z,33.85
2023-09-17T15:16:11.595Z,34.85
2023-09-17T15:18:38.036Z,35.05
2023-09-17T15:21:06.223Z,35.30
2023-09-17T15:23:34.300Z,38.85
2023-09-17T15:26:00.976Z,34.88
2023-09-17T15:28:29.503Z,37.50
2023-09-17T15:30:56.818Z,38.20
2023-09-17T15:33:28.971Z,40.92
2023-09-17T15:35:56.130Z,40.80
2023-09-17T15:38:25.508Z,38.95
2023-09-17T15:40:52.786Z,40.63
2023-09-17T15:43:19.829Z,43.00
2023-09-17T15:45:46.393Z,43.75
2023-09-17T15:48:15.717Z,44.60
2023-09-17T15:50:42.243Z,45.05
2023-09-17T15:53:08.933Z,44.72
2023-09-17T15:55:35.780Z,43.15
2023-09-17T15:58:05.790Z,45.58
2023-09-17T16:00:41.063Z,44.72
2023-09-17T16:03:08.139Z,48.25
2023-09-17T16:05:36.997Z,49.38
2023-09-17T16:08:03.566Z,48.85
2023-09-17T16:10:31.659Z,49.60
2023-09-17T16:12:58.370Z,50.45
2023-09-17T16:15:25.887Z,52.20
2023-09-17T16:17:53.846Z,48.83
2023-09-17T16:20:26.617Z,50.97
2023-09-17T16:22:53.239Z,51.83
2023-09-17T16:25:21.259Z,49.83
2023-09-17T16:27:47.656Z,49.03
2023-09-17T16:30:14.835Z,49.72
2023-09-17T16:32:41.757Z,50.50
2023-09-17T16:35:09.930Z,50.67
2023-09-17T16:37:40.729Z,49.85
2023-09-17T16:40:11.954Z,51.67
2023-09-17T16:42:38.698Z,53.13
2023-09-17T16:45:06.089Z,56.47
2023-09-17T16:47:33.130Z,58.05
2023-09-17T16:50:02.637Z,59.63
2023-09-17T16:52:29.423Z,55.63
2023-09-17T16:54:56.810Z,59.60
2023-09-17T16:57:25.661Z,61.63
2023-09-17T16:59:53.457Z,63.15
2023-09-17T17:02:24.901Z,64.97
2023-09-17T17:04:56.054Z,69.22
2023-09-17T17:07:22.577Z,72.35
2023-09-17T17:09:49.049Z,74.57
2023-09-17T17:12:19.346Z,72.72
2023-09-17T17:14:48.070Z,75.47
2023-09-17T17:17:14.557Z,79.63
2023-09-17T17:19:41.083Z,77.70
2023-09-17T17:22:07.496Z,81.95
2023-09-17T17:24:34.339Z,81.90
2023-09-17T17:27:00.992Z,84.90
2023-09-17T17:29:27.426Z,85.25
2023-09-17T17:31:54.829Z,89.57
2023-09-17T17:34:23.501Z,92.72
2023-09-17T17:36:52.775Z,96.20
2023-09-17T17:39:21.554Z,97.80
2023-09-17T17:41:49.165Z,100.05
2023-09-17T17:44:16.906Z,94.00
2023-09-17T17:46:43.830Z,94.05
2023-09-17T17:49:10.314Z,99.13
2023-09-17T17:51:38.107Z,98.75
2023-09-17T17:54:05.231Z,105.03
2023-09-17T17:56:33.036Z,108.43
2023-09-17T17:59:02.505Z,117.20
2023-09-17T18:01:29.905Z,120.65
2023-09-17T18:03:57.894Z,122.78
2023-09-17T18:06:26.269Z,121.07
2023-09-17T18:08:54.156Z,126.55
2023-09-17T18:11:21.579Z,128.27
2023-09-17T18:13:49.221Z,130.68
2023-09-17T18:16:15.794Z,126.72
2023-09-17T18:18:42.228Z,127.43
2023-09-17T18:21:09.030Z,133.60
2023-09-17T18:23:38.710Z,132.73
2023-09-17T18:26:05.250Z,138.63
2023-09-17T18:28:32.261Z,139.48
2023-09-17T18:31:01.019Z,139.45
2023-09-17T18:33:31.481Z,142.23
2023-09-17T18:36:01.302Z,140.80
2023-09-17T18:38:30.205Z,144.32
2023-09-17T18:41:00.097Z,149.23
2023-09-17T18:43:26.863Z,146.27
2023-09-17T18:45:53.295Z,149.25
2023-09-17T18:48:20.911Z,149.43
2023-09-17T18:50:50.589Z,154.32
2023-09-17T18:53:20.323Z,154.73
2023-09-17T18:55:46.894Z,154.98
2023-09-17T18:58:13.456Z,153.82
2023-09-17T19:00:43.008Z,155.57
2023-09-17T19:03:09.794Z,158.07
2023-09-17T19:05:38.797Z,160.25
2023-09-17T19:08:05.526Z,161.85
2023-09-17T19:10:32.512Z,162.98
2023-09-17T19:12:58.844Z,165.93
2023-09-17T19:15:25.614Z,165.20
2023-09-17T19:17:53.717Z,169.02
2023-09-17T19:20:20.622Z,164.82
2023-09-17T19:22:47.380Z,170.50
2023-09-17T19:25:15.334Z,171.43
2023-09-17T19:27:45.686Z,162.15
2023-09-17T19:30:18.524Z,164.85
2023-09-17T19:32:45.267Z,168.70
2023-09-17T19:35:12.963Z,172.48
2023-09-17T19:37:39.805Z,170.75
2023-09-17T19:40:07.965Z,172.23
2023-09-17T19:42:34.418Z,173.63
2023-09-17T19:45:01.921Z,171.23
2023-09-17T19:47:30.023Z,163.73
2023-09-17T19:50:01.407Z,163.38
2023-09-17T19:52:27.978Z,168.63
2023-09-17T19:54:54.697Z,170.05
2023-09-17T19:57:22.966Z,176.52
2023-09-17T19:59:52.176Z,180.98
2023-09-17T20:02:22.814Z,176.80
2023-09-17T20:04:51.612Z,177.00
2023-09-17T20:07:26.318Z,168.70
2023-09-17T20:09:54.559Z,172.40
2023-09-17T20:12:20.965Z,179.57
2023-09-17T20:14:54.928Z,175.65
2023-09-17T20:17:21.388Z,177.52
2023-09-17T20:19:47.933Z,176.68
2023-09-17T20:22:14.994Z,174.35
2023-09-17T20:24:48.341Z,172.38
2023-09-17T20:27:14.934Z,175.77
2023-09-17T20:29:44.944Z,177.55
2023-09-17T20:32:11.759Z,171.82
2023-09-17T20:34:40.624Z,176.30
2023-09-17T20:37:09.158Z,179.80
2023-09-17T20:39:36.566Z,181.93
2023-09-17T20:42:05.312Z,177.85
2023-09-17T20:44:49.829Z,175.02
2023-09-17T20:47:18.229Z,176.63
2023-09-17T20:49:45.736Z,191.18
2023-09-17T20:52:12.945Z,181.60
2023-09-17T20:54:39.736Z,182.40
2023-09-17T20:57:06.253Z,175.05
2023-09-17T20:59:34.159Z,176.57
2023-09-17T21:02:07.188Z,179.98
2023-09-17T21:04:35.596Z,179.75
2023-09-17T21:07:02.093Z,173.77
2023-09-17T21:09:31.939Z,173.02
2023-09-17T21:11:59.743Z,173.52
2023-09-17T21:14:27.913Z,175.85
2023-09-17T21:16:59.096Z,180.60
2023-09-17T21:19:25.790Z,182.95
2023-09-17T21:21:53.249Z,173.40
2023-09-17T21:24:21.123Z,174.60
2023-09-17T21:26:54.856Z,179.63
2023-09-17T21:29:22.088Z,171.70
2023-09-17T21:31:49.477Z,180.07
2023-09-17T21:34:15.891Z,179.63
2023-09-17T21:36:42.314Z,183.63
2023-09-17T21:39:08.869Z,184.18
2023-09-17T21:41:35.780Z,181.38
2023-09-17T21:44:03.872Z,182.15
2023-09-17T21:46:30.729Z,181.95
2023-09-17T21:48:57.709Z,191.88
2023-09-17T21:51:25.719Z,187.18
2023-09-17T21:53:53.306Z,187.80
2023-09-17T21:56:21.224Z,198.00
2023-09-17T21:58:47.890Z,195.60
2023-09-17T22:01:14.421Z,196.05
2023-09-17T22:03:42.880Z,192.32
2023-09-17T22:06:09.942Z,200.65
2023-09-17T22:08:37.770Z,197.57
2023-09-17T22:11:05.062Z,206.70
2023-09-17T22:13:31.892Z,200.73
2023-09-17T22:15:58.312Z,202.00
2023-09-17T22:18:26.229Z,197.88
2023-09-17T22:21:07.698Z,201.40
2023-09-17T22:23:34.933Z,202.65
2023-09-17T22:26:01.839Z,196.02
2023-09-17T22:28:36.782Z,191.35
2023-09-17T22:31:10.349Z,194.50
2023-09-17T22:33:37.638Z,196.75
2023-09-17T22:36:09.810Z,199.10
2023-09-17T22:38:37.158Z,195.48
2023-09-17T22:41:09.898Z,190.80
2023-09-17T22:43:37.608Z,186.88
2023-09-17T22:46:06.203Z,181.32
2023-09-17T22:48:36.378Z,189.07
2023-09-17T22:51:04.982Z,189.93
2023-09-17T22:53:34.146Z,186.73
2023-09-17T22:56:01.866Z,181.38
2023-09-17T22:58:30.029Z,183.98
2023-09-17T23:00:59.401Z,185.60
2023-09-17T23:03:26.697Z,189.52
2023-09-17T23:05:53.658Z,185.23
2023-09-17T23:08:21.603Z,172.30
2023-09-17T23:10:49.102Z,175.38
2023-09-17T23:13:17.391Z,185.32
2023-09-17T23:15:46.233Z,192.40
2023-09-17T23:18:15.786Z,193.48
2023-09-17T23:20:42.342Z,193.93
2023-09-17T23:23:10.228Z,197.63
2023-09-17T23:25:38.219Z,196.77
2023-09-17T23:28:07.683Z,197.35
2023-09-17T23:30:35.320Z,192.70
2023-09-17T23:33:01.982Z,192.45
2023-09-17T23:35:29.592Z,187.57
2023-09-17T23:37:56.915Z,191.23
2023-09-17T23:40:25.685Z,195.82
2023-09-17T23:42:52.769Z,190.88
2023-09-17T23:45:20.331Z,200.25
2023-09-17T23:47:47.521Z,194.48
2023-09-17T23:50:15.755Z,198.98
2023-09-17T23:52:43.087Z,187.60
2023-09-17T23:55:10.938Z,184.45
2023-09-17T23:57:37.400Z,185.43
